Time;durP1;ratioP1;P1;durP2;ratioP2;P2;SDS_P1;SDS_P2;PMS_P1;PMS_P2;Temp;Humidity;BMP_temperature;BMP_pressure;BME280_temperature;BME280_humidity;BME280_pressure;Samples;Min_cycle;Max_cycle;Signal;HPM_P1;HPM_P2
2022/01/09 00:01:02;;;;;;;0.63;0.63;;;;;;;-6.74;86.99;99582.88;4873615;29;20056;-87
2022/01/09 00:03:29;;;;;;;0.80;0.80;;;;;;;-6.65;86.73;99571.66;4889113;29;20090;-88
2022/01/09 00:05:57;;;;;;;0.80;0.80;;;;;;;-6.70;86.85;99581.69;4905983;29;20048;-88
2022/01/09 00:08:24;;;;;;;0.80;0.80;;;;;;;-6.74;86.94;99570.56;4906513;29;20580;-86
2022/01/09 00:10:52;;;;;;;0.77;0.77;;;;;;;-6.72;86.73;99581.78;4907373;29;20044;-88
2022/01/09 00:13:19;;;;;;;0.73;0.73;;;;;;;-6.72;86.74;99579.16;4886024;29;20052;-85
2022/01/09 00:15:46;;;;;;;0.63;0.63;;;;;;;-6.72;86.52;99589.66;4890455;29;20432;-89
2022/01/09 00:18:14;;;;;;;0.70;0.70;;;;;;;-6.73;86.67;99577.50;4888250;29;20056;-85
2022/01/09 00:20:41;;;;;;;0.70;0.70;;;;;;;-6.88;86.78;99570.84;4889808;29;20077;-87
2022/01/09 00:23:08;;;;;;;0.60;0.60;;;;;;;-6.82;86.45;99567.72;4904214;29;20147;-85
2022/01/09 00:25:35;;;;;;;0.98;0.98;;;;;;;-6.93;86.61;99565.94;4904822;29;20071;-85
2022/01/09 00:28:03;;;;;;;0.50;0.50;;;;;;;-6.97;86.68;99561.88;4906137;29;20044;-86
2022/01/09 00:30:30;;;;;;;0.68;0.68;;;;;;;-6.92;86.61;99572.00;4905785;29;20052;-86
2022/01/09 00:32:58;;;;;;;0.80;0.80;;;;;;;-7.01;87.02;99582.28;4907071;29;20092;-86
2022/01/09 00:35:25;;;;;;;0.70;0.70;;;;;;;-7.05;86.68;99557.22;4889229;29;20048;-84
2022/01/09 00:37:52;;;;;;;0.70;0.70;;;;;;;-7.08;86.74;99552.22;4893558;29;20048;-85
2022/01/09 00:40:19;;;;;;;0.68;0.68;;;;;;;-7.05;86.87;99565.09;4905404;29;20056;-85
2022/01/09 00:42:46;;;;;;;0.70;0.70;;;;;;;-7.06;86.54;99573.91;4906508;29;20057;-85
2022/01/09 00:45:14;;;;;;;0.60;0.60;;;;;;;-7.06;86.42;99575.72;4906047;29;20076;-85
2022/01/09 00:47:42;;;;;;;0.57;0.57;;;;;;;-7.09;86.40;99573.31;4912612;29;20116;-86
2022/01/09 00:50:10;;;;;;;0.50;0.50;;;;;;;-7.06;86.41;99578.34;4896234;29;20111;-87
2022/01/09 00:52:37;;;;;;;0.80;0.80;;;;;;;-7.02;86.34;99567.47;4907442;29;20139;-85
2022/01/09 00:55:06;;;;;;;0.73;0.73;;;;;;;-7.03;86.15;99555.31;4873186;29;20063;-86
2022/01/09 00:57:33;;;;;;;0.70;0.70;;;;;;;-7.07;86.14;99540.75;4905726;29;20040;-85
2022/01/09 01:00:06;;;;;;;0.80;0.80;;;;;;;-7.08;86.26;99538.25;4904780;29;20049;-86
2022/01/09 01:02:34;;;;;;;0.88;0.88;;;;;;;-7.18;86.02;99546.00;4873371;29;20051;-85
2022/01/09 01:05:01;;;;;;;0.70;0.70;;;;;;;-7.27;86.28;99530.97;4909800;29;20055;-90
2022/01/09 01:07:29;;;;;;;0.80;0.80;;;;;;;-7.36;86.45;99514.16;4883596;29;20504;-87
2022/01/09 01:09:57;;;;;;;0.80;0.80;;;;;;;-7.33;86.71;99531.44;4915903;29;20138;-90
2022/01/09 01:12:26;;;;;;;0.90;0.90;;;;;;;-7.32;86.63;99531.31;4916246;29;20095;-85
2022/01/09 01:14:53;;;;;;;0.90;0.90;;;;;;;-7.33;86.68;99541.94;4915483;29;20056;-86
2022/01/09 01:17:22;;;;;;;0.70;0.70;;;;;;;-7.32;86.74;99544.44;4882892;29;20059;-84
2022/01/09 01:19:49;;;;;;;0.68;0.68;;;;;;;-7.31;86.81;99537.41;4915725;29;20052;-83
2022/01/09 01:22:30;;;;;;;0.68;0.68;;;;;;;-7.33;87.01;99536.69;4915228;29;20052;-85
2022/01/09 01:24:58;;;;;;;0.57;0.57;;;;;;;-7.31;86.97;99524.31;4915416;29;20055;-85
2022/01/09 01:27:25;;;;;;;0.60;0.60;;;;;;;-7.32;87.01;99522.63;4925753;29;20113;-85
2022/01/09 01:29:56;;;;;;;0.90;0.90;;;;;;;-7.35;86.88;99528.09;4908237;29;20052;-86
2022/01/09 01:32:23;;;;;;;0.73;0.73;;;;;;;-7.32;87.01;99527.84;4915608;29;20091;-85
2022/01/09 01:34:51;;;;;;;0.60;0.60;;;;;;;-7.34;86.88;99517.50;4898773;29;20058;-85
2022/01/09 01:37:19;;;;;;;0.70;0.70;;;;;;;-7.34;86.94;99509.63;4917191;29;20048;-85
2022/01/09 01:39:46;;;;;;;0.80;0.80;;;;;;;-7.35;86.91;99525.47;4925323;29;20052;-84
2022/01/09 01:42:13;;;;;;;0.70;0.70;;;;;;;-7.34;87.05;99524.50;4926088;29;20064;-84
2022/01/09 01:44:42;;;;;;;0.70;0.70;;;;;;;-7.37;86.96;99520.34;4925513;29;20103;-84
2022/01/09 01:47:10;;;;;;;0.70;0.70;;;;;;;-7.35;87.21;99517.59;4925149;29;20052;-85
2022/01/09 01:49:38;;;;;;;0.85;0.85;;;;;;;-7.36;87.00;99500.22;4909046;29;20048;-84
2022/01/09 01:52:05;;;;;;;0.68;0.68;;;;;;;-7.39;86.92;99500.44;4937860;29;20067;-84
2022/01/09 01:54:33;;;;;;;0.80;0.80;;;;;;;-7.41;86.92;99492.69;4922999;29;20047;-84
2022/01/09 01:57:00;;;;;;;0.82;0.82;;;;;;;-7.43;86.94;99490.19;4937943;29;20052;-85
2022/01/09 01:59:27;;;;;;;0.73;0.73;;;;;;;-7.43;86.84;99478.88;4920793;29;20056;-85
2022/01/09 02:01:55;;;;;;;0.85;0.85;;;;;;;-7.45;86.84;99475.53;4919713;29;20052;-85
2022/01/09 02:04:22;;;;;;;0.75;0.75;;;;;;;-7.47;86.85;99473.03;4920850;29;20052;-84
2022/01/09 02:06:49;;;;;;;0.80;0.80;;;;;;;-7.41;86.82;99467.31;4916053;29;20540;-84
2022/01/09 02:09:16;;;;;;;0.90;0.90;;;;;;;-7.37;86.69;99449.53;4915744;29;20056;-86
2022/01/09 02:11:45;;;;;;;0.70;0.70;;;;;;;-7.38;86.49;99471.47;4914595;29;20056;-83
2022/01/09 02:14:12;;;;;;;0.80;0.80;;;;;;;-7.39;86.49;99468.97;4910757;29;20432;-85
2022/01/09 02:16:41;;;;;;;0.73;0.73;;;;;;;-7.40;86.61;99462.88;4898076;29;20049;-84
2022/01/09 02:19:11;;;;;;;0.70;0.70;;;;;;;-7.41;86.59;99466.47;4893021;29;20450;-84
2022/01/09 02:21:40;;;;;;;0.70;0.70;;;;;;;-7.39;86.55;99464.56;4914341;29;20064;-84
2022/01/09 02:24:08;;;;;;;0.70;0.70;;;;;;;-7.37;86.50;99467.88;4909909;29;20081;-83
2022/01/09 02:26:35;;;;;;;0.90;0.90;;;;;;;-7.37;86.51;99464.44;4909909;29;20135;-84
2022/01/09 02:29:02;;;;;;;0.95;0.95;;;;;;;-7.38;86.65;99462.78;4912187;29;20143;-84
2022/01/09 02:31:29;;;;;;;0.80;0.80;;;;;;;-7.33;86.40;99468.50;4908189;29;20056;-85
2022/01/09 02:33:58;;;;;;;0.90;0.90;;;;;;;-7.33;86.19;99471.13;4912220;29;20307;-84
2022/01/09 02:36:25;;;;;;;0.80;0.80;;;;;;;-7.33;86.22;99460.63;4914144;29;20412;-84
2022/01/09 02:38:52;;;;;;;0.60;0.60;;;;;;;-7.33;86.09;99465.88;4918294;29;20088;-85
2022/01/09 02:41:19;;;;;;;0.60;0.60;;;;;;;-7.37;85.82;99459.19;4901245;29;20493;-85
2022/01/09 02:43:46;;;;;;;0.93;0.93;;;;;;;-7.35;85.84;99468.63;4917862;29;20645;-85
2022/01/09 02:46:33;;;;;;;0.60;0.60;;;;;;;-7.38;85.76;99465.41;4918012;29;20052;-85
2022/01/09 02:49:05;;;;;;;0.80;0.80;;;;;;;-7.42;86.00;99472.66;4917877;29;20091;-84
2022/01/09 02:51:34;;;;;;;0.80;0.80;;;;;;;-7.42;85.60;99465.66;4900432;29;20078;-85
2022/01/09 02:55:05;;;;;;;1.00;1.00;;;;;;;-7.41;85.46;99475.19;4901201;29;20103;-83
2022/01/09 02:56:48;;;;;;;0.70;0.70;;;;;;;-7.43;85.34;99466.59;4903471;29;20052;-84
2022/01/09 02:59:15;;;;;;;0.68;0.68;;;;;;;-7.45;85.29;99452.75;4917775;29;20675;-84
2022/01/09 03:01:43;;;;;;;0.75;0.75;;;;;;;-7.43;84.78;99471.00;4923131;29;20103;-86
2022/01/09 03:04:10;;;;;;;0.60;0.60;;;;;;;-7.43;84.71;99463.97;4921482;29;20060;-85
2022/01/09 03:06:37;;;;;;;0.80;0.80;;;;;;;-7.39;84.64;99458.47;4917942;29;20048;-84
2022/01/09 03:09:06;;;;;;;0.70;0.70;;;;;;;-7.35;83.76;99454.66;4917344;29;20083;-85
2022/01/09 03:11:36;;;;;;;0.77;0.77;;;;;;;-7.34;83.21;99451.09;4916897;29;20056;-86
2022/01/09 03:14:03;;;;;;;0.77;0.77;;;;;;;-7.34;83.06;99449.31;4901776;29;20090;-85
2022/01/09 03:16:30;;;;;;;0.80;0.80;;;;;;;-7.34;82.75;99454.56;4917127;29;20080;-86
2022/01/09 03:18:57;;;;;;;0.68;0.68;;;;;;;-7.28;82.11;99446.19;4917582;29;20563;-85
2022/01/09 03:21:24;;;;;;;0.80;0.80;;;;;;;-7.28;81.29;99443.59;4899918;29;20098;-85
2022/01/09 03:23:51;;;;;;;0.68;0.68;;;;;;;-7.25;80.70;99439.88;4916283;29;20100;-86
2022/01/09 03:26:18;;;;;;;0.80;0.80;;;;;;;-7.25;80.08;99445.13;4917241;29;20209;-85
2022/01/09 03:28:45;;;;;;;0.65;0.65;;;;;;;-7.26;80.23;99439.06;4916954;29;20699;-84
2022/01/09 03:31:12;;;;;;;0.80;0.80;;;;;;;-7.27;79.83;99437.38;4916914;29;20052;-83
2022/01/09 03:33:39;;;;;;;0.88;0.88;;;;;;;-7.27;79.79;99439.16;4917163;29;20080;-83
2022/01/09 03:36:07;;;;;;;0.82;0.82;;;;;;;-7.24;79.38;99431.06;4900340;29;20575;-82
2022/01/09 03:38:34;;;;;;;0.88;0.88;;;;;;;-7.23;78.89;99427.50;4899535;29;20483;-86
2022/01/09 03:41:01;;;;;;;0.75;0.75;;;;;;;-7.22;78.09;99429.16;4917475;29;20499;-86
2022/01/09 03:43:28;;;;;;;0.77;0.77;;;;;;;-7.24;77.97;99433.66;4900289;29;20066;-85
2022/01/09 03:45:55;;;;;;;0.80;0.80;;;;;;;-7.22;77.67;99423.91;4917431;29;20119;-86
2022/01/09 03:48:23;;;;;;;0.63;0.63;;;;;;;-7.25;77.60;99432.00;4900264;29;20586;-86
2022/01/09 03:50:51;;;;;;;0.70;0.70;;;;;;;-7.24;77.50;99424.03;4918414;29;20429;-85
2022/01/09 03:53:19;;;;;;;0.60;0.60;;;;;;;-7.20;76.64;99419.38;4900226;29;20079;-85
2022/01/09 03:55:46;;;;;;;0.70;0.70;;;;;;;-7.21;76.66;99433.47;4917783;29;20052;-85
2022/01/09 03:58:13;;;;;;;0.60;0.60;;;;;;;-7.17;75.83;99432.25;4884919;29;20642;-85
2022/01/09 04:00:40;;;;;;;0.90;0.90;;;;;;;-7.16;75.13;99427.81;4918068;29;20158;-85
2022/01/09 04:03:07;;;;;;;0.90;0.90;;;;;;;-7.18;74.95;99425.34;4916563;29;20052;-86
2022/01/09 04:05:35;;;;;;;0.80;0.80;;;;;;;-7.17;75.03;99416.50;4899699;29;20476;-86
2022/01/09 04:08:02;;;;;;;0.60;0.60;;;;;;;-7.15;74.90;99435.59;4899526;29;20056;-87
2022/01/09 04:10:41;;;;;;;0.90;0.90;;;;;;;-7.16;74.82;99444.41;4917084;29;20111;-90
2022/01/09 04:13:12;;;;;;;0.70;0.70;;;;;;;-7.12;74.28;99431.88;4917329;29;20051;-89
2022/01/09 04:15:45;;;;;;;0.80;0.80;;;;;;;-7.15;74.46;99435.59;4918153;29;20223;-90
2022/01/09 04:18:22;;;;;;;0.65;0.65;;;;;;;-7.16;75.04;99451.44;4918932;29;20064;-89
2022/01/09 04:20:51;;;;;;;0.70;0.70;;;;;;;-7.18;74.89;99451.56;4919469;29;20056;-92
2022/01/09 04:23:19;;;;;;;0.80;0.80;;;;;;;-7.15;74.52;99456.56;4886129;29;20087;-90
2022/01/09 04:25:47;;;;;;;0.73;0.73;;;;;;;-7.16;74.36;99449.66;4917087;29;20108;-90
2022/01/09 04:28:14;;;;;;;0.75;0.75;;;;;;;-7.17;73.81;99441.91;4917608;29;20376;-90
2022/01/09 04:30:42;;;;;;;0.85;0.85;;;;;;;-7.18;74.19;99440.25;4918746;29;20087;-89
2022/01/09 04:33:10;;;;;;;0.77;0.77;;;;;;;-7.25;74.46;99424.97;4886224;29;20048;-86
2022/01/09 04:35:41;;;;;;;1.00;1.00;;;;;;;-7.28;74.73;99425.22;4918804;29;20083;-86
2022/01/09 04:38:08;;;;;;;0.80;0.80;;;;;;;-7.31;74.29;99428.09;4906969;29;20071;-84
2022/01/09 04:40:35;;;;;;;1.00;1.00;;;;;;;-7.33;74.24;99429.16;4909997;29;20057;-88
2022/01/09 04:43:06;;;;;;;0.80;0.80;;;;;;;-7.34;74.66;99422.22;4919086;29;20056;-87
2022/01/09 04:45:33;;;;;;;0.75;0.75;;;;;;;-7.37;74.74;99425.09;4917555;29;20052;-87
2022/01/09 04:48:04;;;;;;;0.60;0.60;;;;;;;-7.32;74.59;99428.19;4899177;29;20409;-86
2022/01/09 04:50:33;;;;;;;0.90;0.90;;;;;;;-7.34;73.88;99419.63;4916663;29;20056;-85
2022/01/09 04:53:05;;;;;;;0.90;0.90;;;;;;;-7.35;73.84;99421.41;4915857;29;20060;-86
2022/01/09 04:55:39;;;;;;;0.90;0.90;;;;;;;-7.37;73.80;99422.47;4915555;29;20063;-85
2022/01/09 04:58:06;;;;;;;0.80;0.80;;;;;;;-7.42;73.81;99407.97;4916057;29;20393;-85
2022/01/09 05:00:34;;;;;;;0.73;0.73;;;;;;;-7.41;74.14;99408.78;4916012;29;20103;-87
2022/01/09 05:03:03;;;;;;;0.70;0.70;;;;;;;-7.43;74.07;99403.66;4916075;29;20106;-87
2022/01/09 05:05:30;;;;;;;0.80;0.80;;;;;;;-7.43;73.87;99415.94;4915430;29;20080;-86
2022/01/09 05:07:57;;;;;;;0.80;0.80;;;;;;;-7.42;73.81;99414.97;4915500;29;20092;-86
2022/01/09 05:10:25;;;;;;;0.90;0.90;;;;;;;-7.46;74.00;99411.75;4916020;29;20071;-86
2022/01/09 05:12:52;;;;;;;1.00;1.00;;;;;;;-7.44;73.96;99416.91;4900136;29;20060;-86
2022/01/09 05:15:21;;;;;;;0.80;0.80;;;;;;;-7.45;73.80;99408.19;4916743;29;20056;-86
2022/01/09 05:17:53;;;;;;;0.70;0.70;;;;;;;-7.45;73.91;99400.31;4915807;29;20527;-84
2022/01/09 05:20:20;;;;;;;0.80;0.80;;;;;;;-7.47;73.56;99404.88;4915600;29;20052;-85
2022/01/09 05:22:47;;;;;;;0.90;0.90;;;;;;;-7.47;73.46;99411.88;4898455;29;20048;-87
2022/01/09 05:25:14;;;;;;;0.80;0.80;;;;;;;-7.46;73.39;99401.28;4915792;29;20056;-85
2022/01/09 05:27:41;;;;;;;0.90;0.90;;;;;;;-7.48;73.35;99402.34;4914673;29;20041;-85
2022/01/09 05:30:09;;;;;;;0.70;0.70;;;;;;;-7.50;73.10;99415.56;4915680;29;20169;-88
2022/01/09 05:32:36;;;;;;;0.75;0.75;;;;;;;-7.53;73.06;99418.44;4915308;29;20048;-87
2022/01/09 05:35:04;;;;;;;0.75;0.75;;;;;;;-7.56;73.26;99410.00;4915734;29;20555;-86
2022/01/09 05:37:31;;;;;;;0.60;0.60;;;;;;;-7.59;72.92;99405.81;4915077;29;20059;-87
2022/01/09 05:39:58;;;;;;;0.80;0.80;;;;;;;-7.58;72.32;99410.09;4915425;29;20489;-86
2022/01/09 05:42:25;;;;;;;0.90;0.90;;;;;;;-7.60;71.66;99422.47;4915484;29;20052;-85
2022/01/09 05:44:54;;;;;;;0.70;0.70;;;;;;;-7.64;71.36;99424.53;4916415;29;20151;-86
2022/01/09 05:47:21;;;;;;;1.00;1.00;;;;;;;-7.69;71.81;99428.44;4918662;29;20048;-86
2022/01/09 05:49:48;;;;;;;0.80;0.80;;;;;;;-7.67;71.63;99453.59;4915191;29;20056;-86
2022/01/09 05:52:15;;;;;;;1.00;1.00;;;;;;;-7.68;71.25;99436.19;4918564;29;20072;-87
2022/01/09 05:54:42;;;;;;;0.90;0.90;;;;;;;-7.74;71.30;99427.97;4911301;29;20109;-87
2022/01/09 05:57:10;;;;;;;0.90;0.90;;;;;;;-7.75;71.76;99431.53;4910570;29;20048;-86
2022/01/09 05:59:37;;;;;;;0.70;0.70;;;;;;;-7.73;71.37;99437.50;4892288;29;20052;-86
2022/01/09 06:02:05;;;;;;;1.05;1.05;;;;;;;-7.72;71.06;99428.66;4896897;29;20080;-87
2022/01/09 06:04:32;;;;;;;0.90;0.90;;;;;;;-7.73;71.35;99433.06;4891364;29;20632;-86
2022/01/09 06:06:59;;;;;;;1.00;1.00;;;;;;;-7.65;70.90;99448.22;4915045;29;20048;-86
2022/01/09 06:09:26;;;;;;;0.85;0.85;;;;;;;-7.60;70.13;99438.22;4909953;29;20086;-85
2022/01/09 06:11:53;;;;;;;0.90;0.90;;;;;;;-7.55;70.10;99448.34;4909354;29;20116;-84
2022/01/09 06:14:21;;;;;;;0.90;0.90;;;;;;;-7.57;70.06;99442.38;4866442;29;20060;-84
2022/01/09 06:16:48;;;;;;;0.90;0.90;;;;;;;-7.55;69.91;99454.41;4900557;29;20136;-88
2022/01/09 06:19:15;;;;;;;0.80;0.80;;;;;;;-7.49;69.87;99443.47;4903001;29;20095;-84
2022/01/09 06:21:42;;;;;;;0.90;0.90;;;;;;;-7.49;69.47;99438.22;4915473;29;20127;-84
2022/01/09 06:24:09;;;;;;;0.98;0.98;;;;;;;-7.50;69.69;99436.53;4912505;29;20540;-85
2022/01/09 06:26:37;;;;;;;0.80;0.80;;;;;;;-7.51;70.02;99432.25;4902818;29;20056;-87
2022/01/09 06:29:04;;;;;;;0.80;0.80;;;;;;;-7.45;69.83;99444.88;4560301;29;10000043;-84
2022/01/09 06:31:31;;;;;;;0.80;0.80;;;;;;;-7.44;69.48;99440.50;4897599;29;20048;-92
2022/01/09 06:33:58;;;;;;;1.00;1.00;;;;;;;-7.41;69.77;99443.72;4880538;29;20049;-89
2022/01/09 06:36:28;;;;;;;0.70;0.70;;;;;;;-7.35;69.30;99442.38;4920365;29;20084;-88
2022/01/09 06:38:55;;;;;;;0.77;0.77;;;;;;;-7.29;69.04;99431.44;4917048;29;20083;-91
2022/01/09 06:41:22;;;;;;;1.08;1.08;;;;;;;-7.25;68.72;99424.97;4916755;29;20115;-87
2022/01/09 06:43:49;;;;;;;0.98;0.98;;;;;;;-7.21;68.74;99425.59;4907681;29;20151;-90
2022/01/09 06:46:19;;;;;;;0.90;0.90;;;;;;;-7.24;68.55;99447.66;4910064;29;20076;-92
2022/01/09 06:48:47;;;;;;;0.93;0.93;;;;;;;-7.20;68.32;99446.44;4888800;29;20136;-85
2022/01/09 06:51:14;;;;;;;0.85;0.85;;;;;;;-7.24;67.93;99450.28;4913406;29;20531;-84
2022/01/09 06:53:41;;;;;;;0.95;0.95;;;;;;;-7.28;68.15;99448.81;4915992;29;20745;-87
2022/01/09 06:56:08;;;;;;;0.93;0.93;;;;;;;-7.35;68.35;99413.53;4914886;29;20095;-90
2022/01/09 06:58:38;;;;;;;1.00;1.00;;;;;;;-7.40;68.34;99439.28;4901502;29;20120;-84
2022/01/09 07:01:07;;;;;;;1.00;1.00;;;;;;;-7.39;67.94;99450.59;4896983;29;20143;-84
2022/01/09 07:03:34;;;;;;;0.80;0.80;;;;;;;-7.43;68.53;99445.59;4898778;29;20056;-85
2022/01/09 07:06:01;;;;;;;0.70;0.70;;;;;;;-7.47;68.44;99438.94;4890865;29;20143;-85
2022/01/09 07:08:31;;;;;;;0.73;0.73;;;;;;;-7.43;68.61;99437.75;4880919;29;20144;-87
2022/01/09 07:10:58;;;;;;;0.90;0.90;;;;;;;-7.41;68.34;99435.84;4880279;29;20098;-87
2022/01/09 07:13:25;;;;;;;0.77;0.77;;;;;;;-7.28;67.71;99424.41;4904497;29;20107;-89
2022/01/09 07:15:52;;;;;;;0.70;0.70;;;;;;;-7.23;67.75;99432.72;4914163;29;20060;-89
2022/01/09 07:18:19;;;;;;;0.80;0.80;;;;;;;-7.12;67.35;99427.47;4904273;29;20062;-89
2022/01/09 07:20:46;;;;;;;1.00;1.00;;;;;;;-7.05;66.98;99423.41;4885061;29;20077;-92
2022/01/09 07:23:14;;;;;;;0.77;0.77;;;;;;;-6.94;66.97;99416.47;4915492;29;20048;-90
2022/01/09 07:25:41;;;;;;;0.80;0.80;;;;;;;-6.83;66.70;99416.44;4921035;29;20044;-91
2022/01/09 07:28:08;;;;;;;0.90;0.90;;;;;;;-6.78;66.86;99407.25;4916604;29;20107;-89
2022/01/09 07:31:01;;;;;;;0.70;0.70;;;;;;;-6.69;66.74;99423.19;4907406;29;20054;-90
2022/01/09 07:33:33;;;;;;;0.80;0.80;;;;;;;-6.67;66.49;99422.13;4888448;29;20069;-89
2022/01/09 07:36:02;;;;;;;0.77;0.77;;;;;;;-6.61;67.04;99447.03;4911436;29;20076;-90
2022/01/09 07:38:29;;;;;;;0.73;0.73;;;;;;;-6.58;67.00;99421.38;4892792;29;20059;-89
2022/01/09 07:40:57;;;;;;;0.65;0.65;;;;;;;-6.55;67.09;99418.50;4903855;29;20089;-86
2022/01/09 07:43:24;;;;;;;0.80;0.80;;;;;;;-6.49;66.72;99427.66;4900704;29;20523;-91
2022/01/09 07:45:51;;;;;;;0.85;0.85;;;;;;;-6.47;66.73;99424.91;4903501;29;20075;-86
2022/01/09 07:48:21;;;;;;;0.77;0.77;;;;;;;-6.47;66.73;99438.03;4907659;29;20044;-87
2022/01/09 07:50:48;;;;;;;0.80;0.80;;;;;;;-6.42;67.07;99425.38;4884947;29;20056;-86
2022/01/09 07:53:17;;;;;;;0.60;0.60;;;;;;;-6.34;67.26;99436.06;4901381;29;20136;-87
2022/01/09 07:55:44;;;;;;;0.68;0.68;;;;;;;-6.27;66.89;99432.00;4915935;29;20058;-87
2022/01/09 07:58:12;;;;;;;0.90;0.90;;;;;;;-6.25;66.92;99444.97;4902493;29;20140;-88
2022/01/09 08:00:41;;;;;;;0.85;0.85;;;;;;;-6.20;66.51;99442.81;4910669;29;20062;-89
2022/01/09 08:03:12;;;;;;;0.65;0.65;;;;;;;-6.24;66.68;99450.13;4900575;29;20047;-90
2022/01/09 08:05:39;;;;;;;0.73;0.73;;;;;;;-6.19;66.54;99444.50;4918656;29;20582;-89
2022/01/09 08:08:07;;;;;;;0.70;0.70;;;;;;;-6.22;66.09;99435.06;4889386;29;20079;-90
2022/01/09 08:10:34;;;;;;;0.88;0.88;;;;;;;-6.20;66.24;99438.41;4908583;29;20066;-90
2022/01/09 08:13:01;;;;;;;0.70;0.70;;;;;;;-6.14;65.95;99444.94;4911093;29;20095;-89
2022/01/09 08:15:28;;;;;;;0.80;0.80;;;;;;;-6.14;66.08;99432.63;4902641;29;20571;-90
2022/01/09 08:17:55;;;;;;;0.70;0.70;;;;;;;-6.11;65.61;99428.91;4888585;29;20077;-93
2022/01/09 08:20:23;;;;;;;0.77;0.77;;;;;;;-6.09;65.63;99413.03;4888548;29;20056;-92
2022/01/09 08:22:50;;;;;;;0.80;0.80;;;;;;;-6.01;65.94;99419.31;4901280;29;20048;-93
2022/01/09 08:25:18;;;;;;;0.68;0.68;;;;;;;-5.94;65.72;99428.34;4916314;29;20067;-92
2022/01/09 08:27:46;;;;;;;1.00;1.00;;;;;;;-5.90;65.60;99421.00;4919280;29;20633;-90
2022/01/09 08:30:15;;;;;;;0.70;0.70;;;;;;;-5.97;65.02;99425.16;4877216;29;20054;-91
2022/01/09 08:32:42;;;;;;;0.85;0.85;;;;;;;-5.95;65.66;99410.06;4907292;29;20048;-88
2022/01/09 08:35:11;;;;;;;0.80;0.80;;;;;;;-5.98;65.03;99395.38;4923266;29;20067;-91
2022/01/09 08:37:41;;;;;;;0.70;0.70;;;;;;;-5.97;64.84;99404.94;4886966;29;20116;-91
2022/01/09 08:40:17;;;;;;;0.77;0.77;;;;;;;-5.87;64.48;99418.13;4906091;29;20062;-90
2022/01/09 08:42:44;;;;;;;0.77;0.77;;;;;;;-5.84;64.07;99415.22;4911809;29;20060;-88
2022/01/09 08:45:12;;;;;;;0.75;0.75;;;;;;;-5.88;64.32;99411.19;4911950;29;20060;-84
2022/01/09 08:47:39;;;;;;;0.88;0.88;;;;;;;-5.92;63.99;99404.53;4909935;29;20058;-87
2022/01/09 08:50:08;;;;;;;0.85;0.85;;;;;;;-5.92;64.15;99404.53;4929406;29;20033;-88
2022/01/09 08:52:35;;;;;;;0.80;0.80;;;;;;;-5.83;64.73;99401.09;4901800;29;20297;-87
2022/01/09 08:55:04;;;;;;;0.70;0.70;;;;;;;-5.80;64.97;99406.09;4899744;29;20389;-87
2022/01/09 08:57:31;;;;;;;0.60;0.60;;;;;;;-5.71;64.93;99407.13;4901267;29;20072;-87
2022/01/09 08:59:58;;;;;;;0.80;0.80;;;;;;;-5.70;64.26;99398.28;4890523;29;20052;-88
2022/01/09 09:02:25;;;;;;;0.77;0.77;;;;;;;-5.75;64.17;99400.47;4899798;29;20053;-87
2022/01/09 09:04:57;;;;;;;0.60;0.60;;;;;;;-5.78;64.39;99416.50;4887363;29;20062;-87
2022/01/09 09:07:24;;;;;;;0.85;0.85;;;;;;;-5.83;64.03;99427.41;4914860;29;20048;-89
2022/01/09 09:10:03;;;;;;;0.80;0.80;;;;;;;-5.88;64.04;99416.44;4903181;29;20120;-87
2022/01/09 09:12:32;;;;;;;0.70;0.70;;;;;;;-5.93;64.04;99408.09;4903835;29;20079;-91
2022/01/09 09:15:01;;;;;;;0.80;0.80;;;;;;;-5.90;64.51;99413.09;4909652;29;20064;-89
2022/01/09 09:17:28;;;;;;;0.80;0.80;;;;;;;-5.94;64.14;99399.44;4905986;29;20052;-88
2022/01/09 09:19:56;;;;;;;0.60;0.60;;;;;;;-5.90;64.11;99392.06;4917065;29;20057;-91
2022/01/09 09:22:23;;;;;;;0.60;0.60;;;;;;;-5.89;63.75;99388.50;4881598;29;20481;-91
2022/01/09 09:24:51;;;;;;;0.70;0.70;;;;;;;-5.89;63.94;99391.97;4906050;29;20091;-89
2022/01/09 09:27:20;;;;;;;0.77;0.77;;;;;;;-5.80;63.51;99377.19;4909202;29;20052;-91
2022/01/09 09:29:48;;;;;;;0.70;0.70;;;;;;;-5.65;63.92;99390.81;4884221;29;20162;-91
2022/01/09 09:32:16;;;;;;;1.00;1.00;;;;;;;-5.50;62.94;99386.88;4911974;29;20064;-88
2022/01/09 09:34:44;;;;;;;0.70;0.70;;;;;;;-5.57;62.39;99392.78;4901419;29;20080;-89
2022/01/09 09:37:11;;;;;;;0.82;0.82;;;;;;;-5.50;62.63;99401.81;4918951;29;20539;-91
2022/01/09 09:39:39;;;;;;;0.70;0.70;;;;;;;-5.43;61.94;99392.44;4907809;29;20049;-87
2022/01/09 09:42:06;;;;;;;0.88;0.88;;;;;;;-5.48;62.03;99408.63;4907756;29;20060;-91
2022/01/09 09:44:33;;;;;;;0.70;0.70;;;;;;;-5.47;62.54;99393.66;4903084;29;20056;-88
2022/01/09 09:47:01;;;;;;;0.80;0.80;;;;;;;-5.36;63.17;99393.56;4568738;29;10000544;-88
2022/01/09 09:49:54;;;;;;;0.68;0.68;;;;;;;-5.27;62.80;99392.75;4902489;29;20036;-90
2022/01/09 09:52:21;;;;;;;0.70;0.70;;;;;;;-5.23;62.93;99393.34;4928229;29;20056;-90
2022/01/09 09:54:52;;;;;;;0.85;0.85;;;;;;;-5.19;62.44;99392.13;4922697;29;20062;-92
2022/01/09 09:57:22;;;;;;;0.60;0.60;;;;;;;-5.38;61.96;99398.13;4896203;29;20052;-90
2022/01/09 09:59:59;;;;;;;0.68;0.68;;;;;;;-5.40;62.72;99393.97;4907769;29;20056;-93
2022/01/09 10:02:40;;;;;;;0.80;0.80;;;;;;;-5.42;62.57;99386.19;4926459;29;20040;-90
2022/01/09 10:05:07;;;;;;;0.75;0.75;;;;;;;-5.40;62.51;99376.38;4910827;29;20088;-86
2022/01/09 10:07:35;;;;;;;0.85;0.85;;;;;;;-5.45;62.42;99384.66;4878527;29;20048;-91
2022/01/09 10:10:14;;;;;;;0.70;0.70;;;;;;;-5.43;62.99;99375.84;4862908;29;20098;-89
2022/01/09 10:12:42;;;;;;;0.60;0.60;;;;;;;-5.51;62.43;99368.59;4890986;29;20052;-90
2022/01/09 10:15:15;;;;;;;0.80;0.80;;;;;;;-5.52;62.79;99373.03;4910499;29;20055;-91
2022/01/09 10:17:49;;;;;;;0.65;0.65;;;;;;;-5.48;62.67;99378.84;4922229;29;20080;-87
2022/01/09 10:20:24;;;;;;;0.70;0.70;;;;;;;-5.41;62.99;99371.28;4910418;29;20071;-90
2022/01/09 10:22:53;;;;;;;0.73;0.73;;;;;;;-5.41;62.74;99373.91;4908173;29;20071;-91
2022/01/09 10:25:37;;;;;;;0.70;0.70;;;;;;;-5.32;63.09;99375.72;4910977;29;20071;-87
2022/01/09 10:28:12;;;;;;;0.73;0.73;;;;;;;-5.36;62.58;99376.97;4919051;29;20057;-87
2022/01/09 10:30:43;;;;;;;;;;;;;;;-5.43;62.21;99378.47;4916959;29;20076;-89
2022/01/09 10:33:16;;;;;;;0.73;0.73;;;;;;;-5.46;62.46;99363.78;4912587;29;19927;-90
2022/01/09 10:35:45;;;;;;;0.63;0.63;;;;;;;-5.39;62.46;99372.81;4902795;29;20056;-86
2022/01/09 10:38:21;;;;;;;0.77;0.77;;;;;;;-5.47;61.92;99351.56;4910840;29;20116;-87
2022/01/09 10:41:03;;;;;;;0.77;0.77;;;;;;;-5.55;61.38;99367.19;4899050;29;20071;-86
2022/01/09 10:43:39;;;;;;;0.80;0.80;;;;;;;-5.59;61.46;99353.50;4899699;29;20546;-88
2022/01/09 10:46:09;;;;;;;0.77;0.77;;;;;;;-5.55;61.94;99356.69;4880531;29;21951;-88
2022/01/09 10:48:40;;;;;;;0.70;0.70;;;;;;;-5.56;61.44;99358.47;4883486;29;20052;-88
2022/01/09 10:51:10;;;;;;;0.80;0.80;;;;;;;-5.58;61.84;99349.88;4908386;29;20496;-87
2022/01/09 10:53:42;;;;;;;0.85;0.85;;;;;;;-5.57;61.59;99350.72;4907729;29;20162;-84
2022/01/09 10:56:16;;;;;;;0.68;0.68;;;;;;;-5.50;61.92;99338.69;4907444;29;20076;-87
2022/01/09 10:58:47;;;;;;;0.68;0.68;;;;;;;-5.43;61.75;99331.09;4905820;29;20053;-85
2022/01/09 11:01:27;;;;;;;0.85;0.85;;;;;;;-5.53;60.84;99336.34;4899498;29;20049;-84
2022/01/09 11:03:55;;;;;;;0.70;0.70;;;;;;;-5.57;61.18;99325.25;4895577;29;20052;-85
2022/01/09 11:06:27;;;;;;;0.65;0.65;;;;;;;-5.60;61.14;99332.56;4883259;29;20052;-84
2022/01/09 11:08:56;;;;;;;0.65;0.65;;;;;;;-5.61;60.79;99330.91;4886508;29;20182;-85
2022/01/09 11:11:36;;;;;;;0.60;0.60;;;;;;;-5.58;60.50;99328.03;4905416;29;20444;-87
2022/01/09 11:14:05;;;;;;;0.47;0.47;;;;;;;-5.50;61.45;99325.53;4912605;29;20048;-87
2022/01/09 11:16:34;;;;;;;0.80;0.80;;;;;;;-5.38;61.93;99332.38;4916939;29;20427;-88
2022/01/09 11:19:15;;;;;;;0.65;0.65;;;;;;;-5.42;60.86;99335.38;4921576;29;20128;-88
2022/01/09 11:21:47;;;;;;;0.70;0.70;;;;;;;-5.51;61.29;99339.66;4891942;29;20144;-86
2022/01/09 11:24:32;;;;;;;0.77;0.77;;;;;;;-5.52;61.45;99325.69;4918269;29;20063;-83
2022/01/09 11:27:09;;;;;;;0.80;0.80;;;;;;;-5.56;61.28;99326.09;4904475;29;20048;-88
2022/01/09 11:29:58;;;;;;;0.77;0.77;;;;;;;-5.60;61.01;99319.41;4911987;29;20139;-89
2022/01/09 11:33:04;;;;;;;0.85;0.85;;;;;;;-5.62;61.04;99322.19;4914853;29;20059;-88
2022/01/09 11:35:43;;;;;;;0.70;0.70;;;;;;;-5.69;60.60;99316.63;4925191;29;20055;-87
2022/01/09 11:38:31;;;;;;;0.70;0.70;;;;;;;-5.73;60.50;99312.59;4911197;29;20147;-87
2022/01/09 11:41:34;;;;;;;0.77;0.77;;;;;;;-5.71;61.01;99297.53;4931106;29;20056;-89
2022/01/09 11:44:08;;;;;;;0.60;0.60;;;;;;;-5.70;61.28;99307.09;4846100;29;20047;-88